КЛИМАТИЧНИ ДАННИ

ВЧЕРА
Time Temp. Dewp. Hum. Bar.
00:00 4.1 1 80 1012.1
00:21 4 0.9 80 1011.8
00:31 4 0.9 80 1011.8
00:41 4 0.7 79 1011.6
00:56 4 0.7 79 1011.4
01:06 4.1 0.6 78 1011.4
01:16 4.1 0.6 78 1011.2
01:37 4.1 0.8 79 1011.2
01:47 4 0.5 78 1011.1
01:56 3.9 0.6 79 1011
02:07 3.8 0.5 79 1011
02:22 3.8 0.7 80 1010.8
02:32 3.8 0.5 79 1010.6
02:42 3.8 0.5 79 1010.5
02:57 3.8 0.3 78 1010.3
03:07 3.7 -0.1 76 1010.2
03:18 3.8 0.1 77 1010.2
03:28 3.7 -0.1 76 1009.9
03:37 3.7 -0.1 76 1009.9
03:48 3.7 -0.1 76 1009.8
03:58 3.8 -0.2 75 1009.7
04:08 3.8 -0.2 75 1009.5
04:23 3.9 -0.1 75 1009.5
04:33 3.9 -0.1 75 1009.4
04:43 3.9 -0.1 75 1009.4
04:53 4 0 75 1009.2
05:04 4 -0.2 74 1009
05:14 4.1 -0.3 73 1009
05:28 4.2 -0.3 72 1008.9
05:39 4.3 -0.8 69 1008.8
05:49 4.5 -1.3 65 1008.9
05:59 4.7 -1.2 65 1008.9
06:09 4.9 -1 65 1008.9
06:20 4.9 -0.6 67 1008.7
06:29 4.9 -0.6 67 1008.8
06:44 5 -0.9 65 1008.7
06:55 5.1 -0.8 65 1008.5
07:19 5.3 -0.7 65 1008.5
07:30 5.3 -0.5 66 1008.5
07:40 5.3 -0.5 66 1008.5
07:50 5.4 -0.6 65 1008.4
08:05 5.7 -0.9 62 1008.5
08:15 5.8 -0.8 62 1008.5
08:25 5.9 -0.7 62 1008.5
08:35 6.1 -0.6 62 1008.5
08:46 6.2 -0.5 62 1008.5
08:56 6.4 -0.3 62 1008.4
09:05 6.4 0.1 64 1008.4
09:16 6.4 0.3 65 1008.4
09:26 6.3 1 69 1008.4
09:36 6.3 0.8 68 1008.5
09:46 6.3 1 69 1008.4
09:56 6.4 0.5 66 1008.3
10:06 6.5 0.8 67 1008.2
10:16 6.6 1.1 68 1008.2
10:32 6.7 1.6 70 1008
10:42 6.7 2.2 73 1007.8
10:51 6.9 2.8 75 1007.6
11:02 7.1 3 75 1007.5
11:12 7.3 3.2 75 1007.5
11:27 7.6 3.6 76 1007.3
11:52 7.9 3.9 76 1006.9
12:02 8.1 4.1 76 1006.6
12:18 8.3 4.3 76 1006.3
12:28 8.3 4.5 77 1006.1
12:37 8.1 4.5 78 1005.9
12:48 8 4.6 79 1005.5
12:58 7.9 4.7 80 1005.2
13:13 8.2 5 80 1004.8
13:23 8.3 4.9 79 1004.6
13:33 8.1 4.9 80 1004.4
13:43 7.9 5 82 1004.4
14:09 7.5 5 84 1004.1
14:18 7.4 5 85 1004.2
14:28 7.3 5.1 86 1004.4
14:44 7.2 5 86 1004.5
14:54 7.3 4.9 85 1004.4
15:04 7.2 5 86 1004.5
15:30 6.9 4.9 87 1004.4
15:39 6.8 4.8 87 1004.4
15:50 6.7 4.9 88 1004.2
16:00 6.6 4.9 89 1004
16:15 6.5 5 90 1004
16:25 6.5 5 90 1004
16:35 6.4 4.7 89 1003.9
16:45 6.4 4.9 90 1003.8
16:55 6.4 4.9 90 1003.7
17:21 6.3 4.8 90 1003.4
17:31 6.3 4.8 90 1003.5
17:41 6.2 4.7 90 1003.7
17:51 6 4.2 88 1003.9
18:11 5.6 3.6 87 1003.5
18:22 5.6 3.9 89 1003.7
18:41 5.7 4.2 90 1003.5
18:52 5.7 4.2 90 1003.5
19:02 5.7 4.2 90 1003.5
19:12 5.7 4.2 90 1003.8
19:22 5.7 4.2 90 1003.5
19:32 5.7 4 89 1003.3
19:47 5.7 4 89 1003.2
19:57 5.7 4 89 1003.2
20:08 5.7 4 89 1003.2
20:18 5.7 4.2 90 1003.2
20:27 5.6 3.9 89 1003.2
20:43 5.6 3.8 88 1003.2
20:53 5.6 3.6 87 1003
21:03 5.6 3.8 88 1003
21:29 5.5 3.7 88 1003
21:38 5.5 3.8 89 1003.2
21:48 5.5 3.8 89 1003.3
21:59 5.5 4 90 1003.7
22:19 5.5 3.7 88 1003.2
22:34 5.5 3.7 88 1003
22:44 5.5 3.8 89 1003
23:10 5.6 3.9 89 1002.8
23:20 5.6 4.1 90 1002.6
23:29 5.6 4.1 90 1002.6
23:40 5.6 4.1 90 1003
23:55 5.6 4.2 91 1002.6

ДНЕВНИ СТАТИСТИКИ

2019-12-09
ТЕМПЕРАТУРА
СРЕДНО
5.7
ВИСОКО
8.3
12:18
МИНИМУМ
3.7
03:07
АТМОСФЕРНО НАЛЯГАНЕ
СРЕДНО
1006.7
ВИСОКО
1012.1
00:00
МИНИМУМ
1002.6
23:20
ТОЧКА НА ОРОСЯВАНЕ
СРЕДНО
2.3
ВИСОКО
5.1
14:28
МИНИМУМ
-1.3
05:49
ОТНОСИТЕЛНА ВЛАЖНОСТ
СРЕДНО
79
ВИСОКО
91
23:55
МИНИМУМ
62
08:05
ТЕМПЕРАТУРА (°C)
МИНИМУМ
3.7
ВИСОКО
8.3
СРЕДНО
5.7
АТМОСФЕРНО НАЛЯГАНЕ (hpa)
МИНИМУМ
1002.6
ВИСОКО
1012.1
СРЕДНО
1006.7
DEVICE